Terminal Aerodrome Forecast
Issued by NWS

Home | Current Version | Previous Version | Text Only | Print | Product List | Glossary On
Versions: 1 2 3 4 5 6 7 8 9 10 11 12 13 14
000
FTUS42 KMLB 301700
TAFSUA
TAF
KSUA 301734Z 3018/0118 27009KT P6SM VCSH SCT020 BKN035
      TEMPO 3018/3020 3SM SHRA BKN025
     FM302000 29008KT P6SM VCTS SCT020CB OVC040
      TEMPO 3021/3023 2SM TSRA BKN015CB
     FM010000 29006KT P6SM VCSH SCT020 BKN080
     FM011400 28005KT P6SM SCT010 OVC030=

USA.gov is the U.S. government's official web portal to all federal, state and local government web resources and services.